Indiana, Pennsylvania
Current Conditions -  °F | °C
As of 6:15 PM on Saturday 25 Oct 2014 (Local Time) from KIDI Reporting Station
Broken Clouds Broken Clouds  
Wind Chill: 63°   Ceiling: 4800
Heat Index: 63°   Visibility: 10mi
Dew Point: 50°   Wind: 18mph
Humidity: 63%   Direction: 270°W
Pressure: 29.77"   Gusts: 25mph
Location:  40.62°N, 79.15°W
Report Text: KIDI 252215Z AUTO 27016G22KT 10SM SCT040 BKN048 17/10 A2977 RMK A01
Loading
Personal Weather Stations






























Interactive Weather Map
Tropical Storm Tracking
New forecast layout! Learn more

10-Day Weather Forecast

Advertisements
Track Severe Weather on mobile